Terminal Aerodrome Forecast
Issued by NWS

Home | Current Version | Previous Version | Text Only | Print | Product List | Glossary On
Versions: 1 2 3 4 5 6 7 8 9 10 11 12 13 14 15 16 17 18 19 20 21 22 23 24 25 26 27 28 29
000
FTUS43 KAPX 050349 AAF
TAFTVC
TAF AMD
KTVC 050349Z 0504/0524 02005KT P6SM VCSH BKN035
      TEMPO 0504/0506 BKN025
     FM050600 VRB03KT P6SM SCT035
     FM051600 28007KT P6SM VCSH BKN035=

USA.gov is the U.S. government's official web portal to all federal, state and local government web resources and services.